createdAt,value
2019-05-09T00:01:33.577Z,17.02
2019-05-09T00:04:05.718Z,17.40
2019-05-09T00:06:37.328Z,16.80
2019-05-09T00:09:09.068Z,17.07
2019-05-09T00:11:41.136Z,17.02
2019-05-09T00:14:13.723Z,17.32
2019-05-09T00:16:45.802Z,17.42
2019-05-09T00:19:17.952Z,18.27
2019-05-09T00:21:51.366Z,16.77
2019-05-09T00:24:23.882Z,17.48
2019-05-09T00:26:55.583Z,17.60
2019-05-09T00:29:36.058Z,17.05
2019-05-09T00:32:24.722Z,16.85
2019-05-09T00:35:04.680Z,17.42
2019-05-09T00:37:53.638Z,18.40
2019-05-09T00:40:25.917Z,19.92
2019-05-09T00:42:57.723Z,19.65
2019-05-09T00:45:47.361Z,18.57
2019-05-09T00:48:22.941Z,18.27
2019-05-09T00:50:54.556Z,18.30
2019-05-09T00:53:26.302Z,18.12
2019-05-09T00:55:58.430Z,18.27
2019-05-09T00:58:30.124Z,18.98
2019-05-09T01:01:04.419Z,18.65
2019-05-09T01:03:36.716Z,20.17
2019-05-09T01:06:08.393Z,20.05
2019-05-09T01:08:40.248Z,21.30
2019-05-09T01:11:15.326Z,21.15
2019-05-09T01:13:45.414Z,21.60
2019-05-09T01:16:17.476Z,21.80
2019-05-09T01:18:49.573Z,22.67
2019-05-09T01:21:23.795Z,22.37
2019-05-09T01:23:56.309Z,22.95
2019-05-09T01:26:27.978Z,23.35
2019-05-09T01:28:59.861Z,23.87
2019-05-09T01:31:33.258Z,24.77
2019-05-09T01:34:16.694Z,25.23
2019-05-09T01:37:05.148Z,24.07
2019-05-09T01:39:37.423Z,27.05
2019-05-09T01:42:09.176Z,27.02
2019-05-09T01:44:41.246Z,28.60
2019-05-09T01:47:14.062Z,30.12
2019-05-09T01:49:46.009Z,29.77
2019-05-09T01:52:18.159Z,30.00
2019-05-09T01:54:50.271Z,29.32
2019-05-09T01:57:23.464Z,29.52
2019-05-09T01:59:55.173Z,28.25
2019-05-09T02:02:27.377Z,29.07
2019-05-09T02:04:58.991Z,27.65
2019-05-09T02:07:30.749Z,28.77
2019-05-09T02:10:03.533Z,28.07
2019-05-09T02:12:35.310Z,28.57
2019-05-09T02:15:13.061Z,28.73
2019-05-09T02:18:05.217Z,30.52
2019-05-09T02:20:36.603Z,30.00
2019-05-09T02:23:08.549Z,31.48
2019-05-09T02:25:40.534Z,31.10
2019-05-09T02:28:14.159Z,29.32
2019-05-09T02:30:45.874Z,32.38
2019-05-09T02:33:19.421Z,30.95
2019-05-09T02:35:57.052Z,30.43
2019-05-09T02:38:24.958Z,29.57
2019-05-09T02:40:59.517Z,30.25
2019-05-09T02:43:30.424Z,28.80
2019-05-09T02:46:09.722Z,29.15
2019-05-09T02:48:40.423Z,30.88
2019-05-09T02:51:12.265Z,30.48
2019-05-09T02:53:43.793Z,29.40
2019-05-09T02:56:18.753Z,29.20
2019-05-09T02:58:51.001Z,28.85
2019-05-09T03:01:39.367Z,28.85
2019-05-09T03:04:11.436Z,29.75
2019-05-09T03:06:43.217Z,29.80
2019-05-09T03:09:15.155Z,31.85
2019-05-09T03:11:48.577Z,30.37
2019-05-09T03:14:20.624Z,32.38
2019-05-09T03:16:52.386Z,31.82
2019-05-09T03:19:24.351Z,31.37
2019-05-09T03:22:00.527Z,31.82
2019-05-09T03:24:32.485Z,30.37
2019-05-09T03:27:08.842Z,30.52
2019-05-09T03:29:42.432Z,30.88
2019-05-09T03:32:14.501Z,30.52
2019-05-09T03:34:47.794Z,28.67
2019-05-09T03:37:19.592Z,30.48
2019-05-09T03:39:51.747Z,27.95
2019-05-09T03:42:38.027Z,30.23
2019-05-09T03:44:58.099Z,31.33
2019-05-09T03:47:31.428Z,30.03
2019-05-09T03:50:17.880Z,31.55
2019-05-09T03:52:49.483Z,29.32
2019-05-09T03:55:22.992Z,28.52
2019-05-09T03:57:59.463Z,27.87
2019-05-09T04:00:31.505Z,27.45
2019-05-09T04:03:04.303Z,28.75
2019-05-09T04:05:37.673Z,28.15
2019-05-09T04:08:19.197Z,30.08
2019-05-09T04:10:53.950Z,27.20
2019-05-09T04:13:28.305Z,24.82
2019-05-09T04:16:00.389Z,25.80
2019-05-09T04:18:32.466Z,24.70
2019-05-09T04:21:04.330Z,27.17
2019-05-09T04:23:37.874Z,26.80
2019-05-09T04:26:13.868Z,25.70
2019-05-09T04:28:47.212Z,20.57
2019-05-09T04:31:18.830Z,18.17
2019-05-09T04:33:50.922Z,18.73
2019-05-09T04:36:24.081Z,17.92
2019-05-09T04:38:57.804Z,18.87
2019-05-09T04:41:29.564Z,14.05
2019-05-09T04:44:05.183Z,16.62
2019-05-09T04:46:34.831Z,16.10
2019-05-09T04:49:08.192Z,17.55
2019-05-09T04:51:40.471Z,17.05
2019-05-09T04:54:12.149Z,16.80
2019-05-09T04:56:47.277Z,16.73
2019-05-09T04:59:20.035Z,16.82
2019-05-09T05:02:09.120Z,16.10
2019-05-09T05:04:41.098Z,17.50
2019-05-09T05:07:13.071Z,17.02
2019-05-09T05:09:45.126Z,15.88
2019-05-09T05:12:18.599Z,17.20
2019-05-09T05:14:50.373Z,13.60
2019-05-09T05:17:22.583Z,11.85
2019-05-09T05:19:55.131Z,7.75
2019-05-09T05:22:28.838Z,9.30
2019-05-09T05:25:02.533Z,7.90
2019-05-09T05:27:34.203Z,6.45
2019-05-09T05:30:07.740Z,6.62
2019-05-09T05:32:41.929Z,6.80
2019-05-09T05:35:15.322Z,7.33
2019-05-09T05:37:49.030Z,6.92
2019-05-09T05:40:21.315Z,7.87
2019-05-09T05:42:53.151Z,8.45
2019-05-09T05:45:28.483Z,7.40
2019-05-09T05:48:11.221Z,8.10
2019-05-09T05:50:43.419Z,8.03
2019-05-09T05:53:15.137Z,8.18
2019-05-09T05:55:50.490Z,8.18
2019-05-09T05:58:20.505Z,8.30
2019-05-09T06:00:52.387Z,10.08
2019-05-09T06:03:24.444Z,8.10
2019-05-09T06:05:58.487Z,9.10
2019-05-09T06:08:29.716Z,8.58
2019-05-09T06:11:01.376Z,8.53
2019-05-09T06:13:33.329Z,6.92
2019-05-09T06:16:05.275Z,6.37
2019-05-09T06:18:38.463Z,7.50
2019-05-09T06:21:10.351Z,8.38
2019-05-09T06:23:42.107Z,5.83
2019-05-09T06:26:13.871Z,6.05
2019-05-09T06:28:48.079Z,5.65
2019-05-09T06:31:19.535Z,5.20
2019-05-09T06:33:53.569Z,4.55
2019-05-09T06:36:25.011Z,3.60
2019-05-09T06:38:58.771Z,4.58
2019-05-09T06:41:30.684Z,3.80
2019-05-09T06:44:14.325Z,4.00
2019-05-09T06:46:39.304Z,3.17
2019-05-09T06:49:26.809Z,3.40
2019-05-09T06:51:47.648Z,3.20
2019-05-09T06:54:19.316Z,3.05
2019-05-09T06:56:51.378Z,3.30
2019-05-09T06:59:23.443Z,2.92
2019-05-09T07:01:59.713Z,3.30
2019-05-09T07:04:39.128Z,2.87
2019-05-09T07:07:21.659Z,2.65
2019-05-09T07:09:58.702Z,5.47
2019-05-09T07:12:30.704Z,4.87
2019-05-09T07:15:02.572Z,5.12
2019-05-09T07:17:34.460Z,3.40
2019-05-09T07:20:08.400Z,2.30
2019-05-09T07:22:41.928Z,3.45
2019-05-09T07:25:24.697Z,3.10
2019-05-09T07:27:58.644Z,3.10
2019-05-09T07:30:48.110Z,3.00
2019-05-09T07:33:21.540Z,2.50
2019-05-09T07:35:53.391Z,2.70
2019-05-09T07:38:32.122Z,3.00
2019-05-09T07:41:04.196Z,2.77
2019-05-09T07:43:38.321Z,3.00
2019-05-09T07:46:20.097Z,3.30
2019-05-09T07:48:53.642Z,2.70
2019-05-09T07:51:27.503Z,2.30
2019-05-09T07:53:59.232Z,2.60
2019-05-09T07:56:31.021Z,2.30
2019-05-09T07:59:03.196Z,2.40
2019-05-09T08:01:35.463Z,3.58
2019-05-09T08:04:07.764Z,2.60
2019-05-09T08:06:39.895Z,2.98
2019-05-09T08:09:12.063Z,2.30
2019-05-09T08:11:44.012Z,1.90
2019-05-09T08:14:17.580Z,2.25
2019-05-09T08:16:49.609Z,1.75
2019-05-09T08:19:21.361Z,1.90
2019-05-09T08:21:53.210Z,2.08
2019-05-09T08:24:27.569Z,2.20
2019-05-09T08:26:58.779Z,1.80
2019-05-09T08:29:31.559Z,1.85
2019-05-09T08:32:03.422Z,2.05
2019-05-09T08:34:37.535Z,2.05
2019-05-09T08:37:12.516Z,2.17
2019-05-09T08:39:42.485Z,2.27
2019-05-09T08:43:10.025Z,2.33
2019-05-09T08:46:00.879Z,1.80
2019-05-09T08:48:33.528Z,1.50
2019-05-09T08:55:24.794Z,1.42
2019-05-09T08:57:58.625Z,1.80
2019-05-09T09:00:30.150Z,1.65
2019-05-09T09:03:02.154Z,1.60
2019-05-09T09:05:34.172Z,1.60
2019-05-09T09:08:08.369Z,1.80
2019-05-09T09:10:39.617Z,1.80
2019-05-09T09:13:11.353Z,1.82
2019-05-09T09:16:05.579Z,1.90
2019-05-09T09:18:17.932Z,2.00
2019-05-09T09:20:49.851Z,2.05
2019-05-09T09:23:22.222Z,1.90
2019-05-09T09:25:54.096Z,1.70
2019-05-09T09:28:27.641Z,1.80
2019-05-09T09:31:00.495Z,1.67
2019-05-09T09:33:32.131Z,1.62
2019-05-09T09:36:03.872Z,1.55
2019-05-09T09:38:37.542Z,2.00
2019-05-09T09:41:09.637Z,2.20
2019-05-09T09:43:41.404Z,2.00
2019-05-09T09:46:14.825Z,2.20
2019-05-09T09:53:08.637Z,2.00
2019-05-09T09:55:40.576Z,2.58
2019-05-09T09:58:30.894Z,2.12
2019-05-09T10:05:38.821Z,1.82
2019-05-09T10:08:13.977Z,2.20
2019-05-09T10:10:44.337Z,2.30
2019-05-09T10:13:18.325Z,2.35
2019-05-09T10:16:00.830Z,17.07
2019-05-09T10:18:34.489Z,20.00
2019-05-09T10:21:10.465Z,14.68
2019-05-09T10:23:42.109Z,16.55
2019-05-09T10:26:14.288Z,12.98
2019-05-09T10:28:48.378Z,11.85
2019-05-09T10:31:19.451Z,11.55
2019-05-09T10:33:51.308Z,10.60
2019-05-09T10:36:23.479Z,9.95
2019-05-09T10:38:58.206Z,14.33
2019-05-09T10:41:29.329Z,24.15
2019-05-09T10:44:02.587Z,22.32
2019-05-09T10:46:52.428Z,27.87
2019-05-09T10:49:17.645Z,26.73
2019-05-09T10:51:49.592Z,47.00
2019-05-09T10:54:21.576Z,70.92
2019-05-09T10:56:53.739Z,76.02
2019-05-09T10:59:27.561Z,81.75
2019-05-09T11:01:59.213Z,90.12
2019-05-09T11:04:31.380Z,97.85
2019-05-09T11:07:03.254Z,98.40
2019-05-09T11:09:35.200Z,99.92
2019-05-09T11:12:07.944Z,99.72
2019-05-09T11:14:40.168Z,96.82
2019-05-09T11:17:18.440Z,98.20
2019-05-09T11:19:48.087Z,94.15
2019-05-09T11:22:19.129Z,96.20
2019-05-09T11:24:51.405Z,87.88
2019-05-09T11:27:23.564Z,86.50
2019-05-09T11:29:57.684Z,84.72
2019-05-09T11:32:29.354Z,87.22
2019-05-09T11:35:01.193Z,84.45
2019-05-09T11:37:32.960Z,86.55
2019-05-09T11:40:06.866Z,83.67
2019-05-09T11:42:39.037Z,90.32
2019-05-09T11:45:11.120Z,81.87
2019-05-09T11:47:46.493Z,79.97
2019-05-09T11:50:22.541Z,67.58
2019-05-09T11:52:49.970Z,69.47
2019-05-09T11:55:34.994Z,69.67
2019-05-09T11:57:55.158Z,71.42
2019-05-09T12:00:29.223Z,74.67
2019-05-09T12:03:00.165Z,83.17
2019-05-09T12:05:32.451Z,95.75
2019-05-09T12:08:04.827Z,104.40
2019-05-09T12:10:38.257Z,106.50
2019-05-09T12:13:10.084Z,107.47
2019-05-09T12:15:42.142Z,109.10
2019-05-09T12:18:14.219Z,112.28
2019-05-09T12:20:48.283Z,112.12
2019-05-09T12:23:20.057Z,107.27
2019-05-09T12:25:51.849Z,108.30
2019-05-09T12:28:23.697Z,105.35
2019-05-09T12:30:55.900Z,110.03
2019-05-09T12:33:28.468Z,109.40
2019-05-09T12:36:00.948Z,105.60
2019-05-09T12:38:32.958Z,110.70
2019-05-09T12:41:04.648Z,125.95
2019-05-09T12:43:38.184Z,106.75
2019-05-09T12:46:10.075Z,110.55
2019-05-09T12:48:42.093Z,140.97
2019-05-09T12:51:13.947Z,107.05
2019-05-09T12:53:48.445Z,101.85
2019-05-09T12:56:20.456Z,88.42
2019-05-09T12:58:52.449Z,101.85
2019-05-09T13:01:24.398Z,91.55
2019-05-09T13:03:58.302Z,79.00
2019-05-09T13:06:30.006Z,77.35
2019-05-09T13:09:01.705Z,67.87
2019-05-09T13:11:35.104Z,71.30
2019-05-09T13:14:10.051Z,68.47
2019-05-09T13:16:54.376Z,80.67
2019-05-09T13:19:27.958Z,80.05
2019-05-09T13:21:59.859Z,84.67
2019-05-09T13:24:31.701Z,85.22
2019-05-09T13:27:03.803Z,126.45
2019-05-09T13:29:37.919Z,63.70
2019-05-09T13:32:09.136Z,76.82
2019-05-09T13:34:40.798Z,52.53
2019-05-09T13:37:12.776Z,40.65
2019-05-09T13:39:44.836Z,31.93
2019-05-09T13:42:19.666Z,27.22
2019-05-09T13:44:50.001Z,23.87
2019-05-09T13:47:21.636Z,21.20
2019-05-09T13:49:55.969Z,20.12
2019-05-09T13:52:27.971Z,7.92
2019-05-09T13:54:59.546Z,8.35
2019-05-09T13:57:31.235Z,8.83
2019-05-09T14:00:02.890Z,7.00
2019-05-09T14:02:35.073Z,5.83
2019-05-09T14:05:09.010Z,6.47
2019-05-09T14:10:11.588Z,5.70
2019-05-09T14:12:43.754Z,6.87
2019-05-09T14:15:15.292Z,6.90
2019-05-09T14:17:52.615Z,7.97
2019-05-09T14:20:20.877Z,11.22
2019-05-09T14:22:52.842Z,8.53
2019-05-09T14:25:24.615Z,6.95
2019-05-09T14:27:56.650Z,4.65
2019-05-09T14:30:28.726Z,3.62
2019-05-09T14:33:00.506Z,3.62
2019-05-09T14:35:32.240Z,3.60
2019-05-09T14:38:04.519Z,3.75
2019-05-09T14:40:37.404Z,3.72
2019-05-09T14:43:09.926Z,3.92
2019-05-09T14:45:41.640Z,3.92
2019-05-09T14:48:13.639Z,9.88
2019-05-09T14:50:45.684Z,4.62
2019-05-09T14:53:18.165Z,5.20
2019-05-09T14:55:50.017Z,5.22
2019-05-09T14:58:21.879Z,5.60
2019-05-09T15:00:53.846Z,4.90
2019-05-09T15:03:27.762Z,4.85
2019-05-09T15:05:59.724Z,5.40
2019-05-09T15:08:31.585Z,5.70
2019-05-09T15:11:03.740Z,5.12
2019-05-09T15:13:35.700Z,5.12
2019-05-09T15:16:08.850Z,5.40
2019-05-09T15:18:40.671Z,3.98
2019-05-09T15:21:12.533Z,5.22
2019-05-09T15:23:44.411Z,4.72
2019-05-09T15:26:17.677Z,4.80
2019-05-09T15:28:49.473Z,5.00
2019-05-09T15:31:21.504Z,5.08
2019-05-09T15:33:53.175Z,4.87
2019-05-09T15:36:25.018Z,4.70
2019-05-09T15:38:59.109Z,4.20
2019-05-09T15:41:30.283Z,4.42
2019-05-09T15:44:01.942Z,4.58
2019-05-09T15:46:51.520Z,4.97
2019-05-09T15:49:23.697Z,4.95
2019-05-09T15:51:55.344Z,5.72
2019-05-09T15:54:29.366Z,5.65
2019-05-09T15:57:00.803Z,5.65
2019-05-09T15:59:32.954Z,5.00
2019-05-09T16:02:04.839Z,4.47
2019-05-09T16:04:40.180Z,4.20
2019-05-09T16:07:10.132Z,4.30
2019-05-09T16:09:42.179Z,4.47
2019-05-09T16:12:14.044Z,4.58
2019-05-09T16:14:48.492Z,3.92
2019-05-09T16:17:19.525Z,3.87
2019-05-09T16:19:51.275Z,3.70
2019-05-09T16:22:23.391Z,3.42
2019-05-09T16:24:55.459Z,3.72
2019-05-09T16:27:27.466Z,3.77
2019-05-09T16:29:59.450Z,4.17
2019-05-09T16:32:31.516Z,3.90
2019-05-09T16:35:03.172Z,4.37
2019-05-09T16:37:52.554Z,4.62
2019-05-09T16:40:09.317Z,4.20
2019-05-09T16:42:41.424Z,4.28
2019-05-09T16:45:13.626Z,5.87
2019-05-09T16:47:45.245Z,4.83
2019-05-09T16:50:18.011Z,4.72
2019-05-09T16:52:49.993Z,5.47
2019-05-09T16:55:23.289Z,4.62
2019-05-09T16:57:57.243Z,3.62
2019-05-09T17:00:38.132Z,5.10
2019-05-09T17:03:11.307Z,5.22
2019-05-09T17:05:43.027Z,4.60
2019-05-09T17:08:14.879Z,4.75
2019-05-09T17:10:48.643Z,5.35
2019-05-09T17:13:20.255Z,5.80
2019-05-09T17:15:52.124Z,5.70
2019-05-09T17:18:23.860Z,6.20
2019-05-09T17:21:18.474Z,7.55
2019-05-09T17:23:43.370Z,8.23
2019-05-09T17:26:17.583Z,9.15
2019-05-09T17:28:49.151Z,9.53
2019-05-09T17:31:20.803Z,9.68
2019-05-09T17:33:53.074Z,9.28
2019-05-09T17:36:24.830Z,9.08
2019-05-09T17:38:56.776Z,6.95
2019-05-09T17:41:28.840Z,7.78
2019-05-09T17:44:00.518Z,7.87
2019-05-09T17:46:32.664Z,7.22
2019-05-09T17:49:04.446Z,6.65
2019-05-09T17:51:36.524Z,6.12
2019-05-09T17:54:08.414Z,5.50
2019-05-09T17:56:40.334Z,6.08
2019-05-09T17:59:12.482Z,4.75
2019-05-09T18:01:44.670Z,5.72
2019-05-09T18:04:17.963Z,4.67
2019-05-09T18:06:50.952Z,4.37
2019-05-09T18:09:22.799Z,4.12
2019-05-09T18:11:57.849Z,4.47
2019-05-09T18:14:29.591Z,3.93
2019-05-09T18:17:01.253Z,3.95
2019-05-09T18:19:33.009Z,4.15
2019-05-09T18:22:04.995Z,4.00
2019-05-09T18:24:37.756Z,4.30
2019-05-09T18:27:09.909Z,4.10
2019-05-09T18:29:41.605Z,3.95
2019-05-09T18:32:33.537Z,3.90
2019-05-09T18:35:17.070Z,3.85
2019-05-09T18:37:49.121Z,4.00
2019-05-09T18:40:21.345Z,3.62
2019-05-09T18:42:53.526Z,3.80
2019-05-09T18:45:28.051Z,3.72
2019-05-09T18:47:59.249Z,3.80
2019-05-09T18:50:31.107Z,4.28
2019-05-09T18:53:03.164Z,4.40
2019-05-09T18:55:35.141Z,3.92
2019-05-09T18:58:07.587Z,3.85
2019-05-09T19:00:39.488Z,4.33
2019-05-09T19:03:11.213Z,4.08
2019-05-09T19:05:43.570Z,4.00
2019-05-09T19:08:15.579Z,5.28
2019-05-09T19:10:51.799Z,5.37
2019-05-09T19:13:20.940Z,5.08
2019-05-09T19:15:58.417Z,4.67
2019-05-09T19:18:41.356Z,4.83
2019-05-09T19:21:15.672Z,5.75
2019-05-09T19:23:47.932Z,6.33
2019-05-09T19:26:24.855Z,6.03
2019-05-09T19:28:56.877Z,5.65
2019-05-09T19:31:29.487Z,4.90
2019-05-09T19:34:01.237Z,5.10
2019-05-09T19:36:36.010Z,5.20
2019-05-09T19:39:09.721Z,5.70
2019-05-09T19:41:41.817Z,5.85
2019-05-09T19:44:13.589Z,6.37
2019-05-09T19:46:47.295Z,6.05
2019-05-09T19:49:19.467Z,6.97
2019-05-09T19:51:51.440Z,7.28
2019-05-09T19:54:24.243Z,6.95
2019-05-09T19:56:55.972Z,7.15
2019-05-09T19:59:27.918Z,7.03
2019-05-09T20:01:59.882Z,6.55
2019-05-09T20:04:31.568Z,7.22
2019-05-09T20:07:03.620Z,8.40
2019-05-09T20:09:37.124Z,8.40
2019-05-09T20:12:22.701Z,7.30
2019-05-09T20:14:55.327Z,8.58
2019-05-09T20:17:28.698Z,8.35
2019-05-09T20:20:01.062Z,9.55
2019-05-09T20:22:33.013Z,9.00
2019-05-09T20:25:06.947Z,9.20
2019-05-09T20:27:38.585Z,9.23
2019-05-09T20:30:12.270Z,9.30
2019-05-09T20:32:44.009Z,9.88
2019-05-09T20:35:16.611Z,10.25
2019-05-09T20:37:48.896Z,10.00
2019-05-09T20:40:21.362Z,10.20
2019-05-09T20:42:53.649Z,11.20
2019-05-09T20:45:26.144Z,10.03
2019-05-09T20:47:58.395Z,9.38
2019-05-09T20:50:30.351Z,9.83
2019-05-09T20:53:23.280Z,9.93
2019-05-09T20:55:58.015Z,10.25
2019-05-09T20:58:30.658Z,10.30
2019-05-09T21:01:02.789Z,9.73
2019-05-09T21:03:34.843Z,9.40
2019-05-09T21:06:07.040Z,9.18
2019-05-09T21:08:39.080Z,9.95
2019-05-09T21:11:11.345Z,9.08
2019-05-09T21:13:48.474Z,9.10
2019-05-09T21:16:17.416Z,9.95
2019-05-09T21:18:49.886Z,12.23
2019-05-09T21:21:21.899Z,14.40
2019-05-09T21:23:54.751Z,15.35
2019-05-09T21:26:26.807Z,16.25
2019-05-09T21:28:59.300Z,18.27
2019-05-09T21:31:31.359Z,25.10
2019-05-09T21:34:03.598Z,27.87
2019-05-09T21:36:36.294Z,25.25
2019-05-09T21:39:07.966Z,23.50
2019-05-09T21:41:40.255Z,22.25
2019-05-09T21:44:12.291Z,20.37
2019-05-09T21:46:44.269Z,20.32
2019-05-09T21:49:16.454Z,18.23
2019-05-09T21:51:48.198Z,15.88
2019-05-09T21:54:20.063Z,13.90
2019-05-09T21:56:53.223Z,12.65
2019-05-09T21:59:27.604Z,10.75
2019-05-09T22:01:59.543Z,10.43
2019-05-09T22:04:31.380Z,9.80
2019-05-09T22:07:03.243Z,9.98
2019-05-09T22:09:35.525Z,9.40
2019-05-09T22:12:07.971Z,9.93
2019-05-09T22:14:39.849Z,9.50
2019-05-09T22:17:33.925Z,9.73
2019-05-09T22:22:39.223Z,10.48
2019-05-09T22:25:12.942Z,10.23
2019-05-09T22:27:45.023Z,10.98
2019-05-09T22:30:17.407Z,11.80
2019-05-09T22:32:49.204Z,11.60
2019-05-09T22:35:21.774Z,10.43
2019-05-09T22:37:53.424Z,9.85
2019-05-09T22:40:25.276Z,9.20
2019-05-09T22:42:56.817Z,9.00
2019-05-09T22:45:29.082Z,9.30
2019-05-09T22:48:01.701Z,8.43
2019-05-09T22:50:33.347Z,9.45
2019-05-09T22:53:05.615Z,8.23
2019-05-09T22:55:37.852Z,8.73
2019-05-09T22:58:09.808Z,8.78
2019-05-09T23:00:41.905Z,9.08
2019-05-09T23:03:14.310Z,9.35
2019-05-09T23:05:46.698Z,7.70
2019-05-09T23:08:18.718Z,8.63
2019-05-09T23:10:53.414Z,7.90
2019-05-09T23:13:25.047Z,9.00
2019-05-09T23:15:56.757Z,8.30
2019-05-09T23:18:28.879Z,7.70
2019-05-09T23:21:01.319Z,7.92
2019-05-09T23:23:34.826Z,7.75
2019-05-09T23:26:06.722Z,7.00
2019-05-09T23:28:38.724Z,7.22
2019-05-09T23:31:12.345Z,8.13
2019-05-09T23:33:45.177Z,7.00
2019-05-09T23:36:16.771Z,7.67
2019-05-09T23:39:08.607Z,7.78
2019-05-09T23:41:40.344Z,7.85
2019-05-09T23:44:12.154Z,7.70
2019-05-09T23:46:44.205Z,8.10
2019-05-09T23:49:16.062Z,7.70
2019-05-09T23:51:50.891Z,8.43
2019-05-09T23:54:46.608Z,7.83
2019-05-09T23:57:32.505Z,7.85
